Time;durP1;ratioP1;P1;durP2;ratioP2;P2;SDS_P1;SDS_P2;PMS_P1;PMS_P2;Temp;Humidity;BMP_temperature;BMP_pressure;BME280_temperature;BME280_humidity;BME280_pressure;Samples;Min_cycle;Max_cycle;Signal;HPM_P1;HPM_P2
2022/02/18 00:00:49;;;;;;;20.73;10.57;;;19.10;59.10;;;;;;21054869;28;20040;-56
2022/02/18 00:10:51;;;;;;;22.17;9.70;;;19.00;59.40;;;;;;21067885;28;20122;-57
2022/02/18 00:20:53;;;;;;;18.88;8.48;;;19.00;59.70;;;;;;21058910;28;20053;-56
2022/02/18 00:30:55;;;;;;;18.15;8.63;;;18.90;59.90;;;;;;21008373;28;20098;-57
2022/02/18 00:40:57;;;;;;;16.98;8.07;;;18.90;60.00;;;;;;21064272;28;20453;-56
2022/02/18 00:50:58;;;;;;;14.27;7.65;;;18.80;60.30;;;;;;21070624;28;20508;-57
2022/02/18 01:01:00;;;;;;;14.63;7.03;;;18.70;60.40;;;;;;21059757;28;20633;-57
2022/02/18 01:11:02;;;;;;;14.45;7.28;;;18.70;60.60;;;;;;21070063;28;20139;-59
2022/02/18 01:21:03;;;;;;;14.35;7.00;;;18.60;60.80;;;;;;21055524;28;20487;-56
2022/02/18 01:31:05;;;;;;;12.57;6.22;;;18.60;60.80;;;;;;21067370;28;20048;-56
2022/02/18 01:41:07;;;;;;;14.15;6.60;;;18.60;61.00;;;;;;21059404;28;20406;-55
2022/02/18 01:51:10;;;;;;;11.82;6.10;;;18.60;61.10;;;;;;21064147;28;20503;-56
2022/02/18 02:01:12;;;;;;;11.63;5.35;;;18.60;61.20;;;;;;21082665;28;20513;-57
2022/02/18 02:11:14;;;;;;;10.43;5.47;;;18.50;61.20;;;;;;21078603;28;20097;-56
2022/02/18 02:21:16;;;;;;;8.65;4.82;;;18.50;61.30;;;;;;21047088;28;20489;-56
2022/02/18 02:31:30;;;;;;;11.02;5.05;;;18.40;61.40;;;;;;21080325;28;20142;-57
2022/02/18 02:41:37;;;;;;;10.55;5.55;;;18.40;61.50;;;;;;21074278;28;20117;-57
2022/02/18 02:51:41;;;;;;;9.65;4.18;;;18.40;61.60;;;;;;21078814;28;20442;-57
2022/02/18 03:01:45;;;;;;;9.63;4.30;;;18.40;61.70;;;;;;21076432;28;20139;-57
2022/02/18 03:11:48;;;;;;;8.82;4.43;;;18.30;61.70;;;;;;21077063;28;20056;-58
2022/02/18 03:21:54;;;;;;;7.95;4.25;;;18.30;61.80;;;;;;21051517;28;20456;-58
2022/02/18 03:31:57;;;;;;;7.57;3.85;;;18.30;61.80;;;;;;21075700;28;20143;-57
2022/02/18 03:42:01;;;;;;;7.53;3.88;;;18.20;62.00;;;;;;21066755;28;20544;-57
2022/02/18 03:52:06;;;;;;;6.07;3.60;;;18.20;62.10;;;;;;21057654;28;20109;-57
2022/02/18 04:02:08;;;;;;;5.32;3.47;;;18.20;62.20;;;;;;21053533;28;20055;-57
2022/02/18 04:12:11;;;;;;;7.70;4.00;;;18.10;62.20;;;;;;21057879;28;20102;-56
2022/02/18 04:22:15;;;;;;;6.13;3.20;;;18.10;62.40;;;;;;21070541;28;20048;-56
2022/02/18 04:32:18;;;;;;;7.20;3.15;;;18.60;62.70;;;;;;21069198;28;20052;-58
2022/02/18 04:42:22;;;;;;;5.32;3.33;;;20.20;61.10;;;;;;21068686;28;20108;-57
2022/02/18 04:52:25;;;;;;;4.20;2.80;;;21.70;59.10;;;;;;21039523;28;20152;-57
2022/02/18 05:02:27;;;;;;;4.53;3.03;;;22.60;57.00;;;;;;21059614;28;20076;-57
2022/02/18 05:12:29;;;;;;;4.05;2.78;;;22.50;56.40;;;;;;21047419;28;20052;-57
2022/02/18 05:22:31;;;;;;;4.18;2.83;;;22.20;55.90;;;;;;21063610;28;20048;-59
2022/02/18 05:32:33;;;;;;;5.85;2.78;;;21.70;55.60;;;;;;21067296;28;20052;-56
2022/02/18 05:42:35;;;;;;;5.50;3.00;;;20.90;56.20;;;;;;21056132;28;20402;-58
2022/02/18 05:52:39;;;;;;;5.32;3.05;;;20.30;56.80;;;;;;21057097;28;20380;-59
2022/02/18 06:02:43;;;;;;;5.63;2.63;;;19.90;57.30;;;;;;21057039;28;20491;-57
2022/02/18 06:12:45;;;;;;;4.30;2.17;;;20.30;57.50;;;;;;21061525;28;20131;-57
2022/02/18 06:22:48;;;;;;;17.65;4.15;;;21.60;55.90;;;;;;21044749;28;20047;-57
2022/02/18 06:32:50;;;;;;;12.07;4.78;;;21.80;56.60;;;;;;21041128;28;20131;-56
2022/02/18 06:42:52;;;;;;;14.45;4.93;;;22.90;55.10;;;;;;20991881;28;20047;-57
2022/02/18 06:52:56;;;;;;;13.48;4.95;;;23.40;54.50;;;;;;21005433;28;20545;-57
2022/02/18 07:02:58;;;;;;;10.40;4.28;;;22.80;55.30;;;;;;20995950;28;20044;-56
2022/02/18 07:13:01;;;;;;;8.77;3.95;;;22.50;55.40;;;;;;21019493;28;20051;-57
2022/02/18 07:23:06;;;;;;;8.82;3.90;;;21.70;55.90;;;;;;21071656;28;20048;-59
2022/02/18 07:33:07;;;;;;;9.90;3.47;;;21.10;56.40;;;;;;21073837;28;20052;-57
2022/02/18 07:43:09;;;;;;;5.95;3.30;;;20.50;57.30;;;;;;21076453;28;20044;-57
2022/02/18 07:53:11;;;;;;;10.02;3.50;;;20.00;58.10;;;;;;21023190;28;20493;-57
2022/02/18 08:03:14;;;;;;;8.20;3.42;;;19.70;58.80;;;;;;21031140;28;20072;-57
2022/02/18 08:13:20;;;;;;;8.25;3.22;;;19.50;59.50;;;;;;21052169;28;20493;-55
2022/02/18 08:23:24;;;;;;;15.30;3.70;;;19.30;60.00;;;;;;21005136;28;20135;-58
2022/02/18 08:33:28;;;;;;;8.18;3.30;;;19.10;60.30;;;;;;21071825;28;20559;-56
2022/02/18 08:43:32;;;;;;;7.25;3.03;;;19.00;60.50;;;;;;20987901;28;20052;-57
2022/02/18 08:53:36;;;;;;;7.53;2.95;;;18.90;60.90;;;;;;21010932;28;20077;-58
2022/02/18 09:03:43;;;;;;;5.23;2.63;;;18.80;61.20;;;;;;21018424;28;20040;-57
2022/02/18 09:13:46;;;;;;;7.38;3.30;;;18.80;61.20;;;;;;21031172;28;20133;-57
2022/02/18 09:23:49;;;;;;;8.18;3.50;;;18.80;61.40;;;;;;21058155;28;20075;-57
2022/02/18 09:33:52;;;;;;;5.63;2.97;;;18.80;61.70;;;;;;21035995;28;20053;-57
2022/02/18 09:43:56;;;;;;;6.35;3.33;;;18.80;61.90;;;;;;20985237;28;20098;-57
2022/02/18 09:53:59;;;;;;;8.32;3.63;;;18.90;62.00;;;;;;21018161;28;20041;-57
2022/02/18 10:04:01;;;;;;;8.38;3.38;;;18.90;61.90;;;;;;20984528;28;20496;-58
2022/02/18 10:14:02;;;;;;;6.68;2.97;;;18.90;62.00;;;;;;20987697;28;20048;-58
2022/02/18 10:24:15;;;;;;;6.70;3.63;;;19.00;62.00;;;;;;20985539;28;20044;-56
2022/02/18 10:34:17;;;;;;;7.45;3.45;;;19.00;62.00;;;;;;21082132;28;20048;-55
2022/02/18 10:44:19;;;;;;;7.85;3.38;;;19.10;61.90;;;;;;21042267;28;20044;-56
2022/02/18 10:54:32;;;;;;;6.03;2.80;;;19.20;61.80;;;;;;21040669;28;20109;-59
2022/02/18 11:04:34;;;;;;;6.43;3.22;;;19.20;61.80;;;;;;20996684;28;20076;-57
2022/02/18 11:14:38;;;;;;;4.35;2.60;;;19.30;61.90;;;;;;20996715;28;20059;-57
2022/02/18 11:24:45;;;;;;;10.85;2.67;;;19.40;61.80;;;;;;20995130;28;20064;-58
2022/02/18 11:35:21;;;;;;;5.57;2.80;;;19.40;61.80;;;;;;21019170;28;20162;-55
2022/02/18 11:45:23;;;;;;;4.65;2.42;;;19.50;61.60;;;;;;20993695;28;20133;-57
2022/02/18 11:55:36;;;;;;;6.45;2.42;;;19.60;61.50;;;;;;21007777;28;20048;-57
2022/02/18 12:06:16;;;;;;;4.72;2.42;;;19.70;61.30;;;;;;20992272;28;20067;-57
2022/02/18 12:16:19;;;;;;;4.65;2.20;;;19.80;61.30;;;;;;20991692;28;20135;-57
2022/02/18 12:26:24;;;;;;;5.85;2.28;;;19.90;61.10;;;;;;21006118;28;20055;-58
2022/02/18 12:36:26;;;;;;;3.15;2.00;;;20.00;60.90;;;;;;21072023;28;20079;-57
2022/02/18 12:46:28;;;;;;;5.60;2.60;;;20.10;60.70;;;;;;21033188;28;20044;-57
2022/02/18 12:56:30;;;;;;;3.70;2.60;;;20.20;60.40;;;;;;21055550;28;20479;-57
2022/02/18 13:06:33;;;;;;;3.53;1.90;;;20.20;60.30;;;;;;21021676;28;20075;-57
2022/02/18 13:16:34;;;;;;;3.58;2.25;;;20.30;60.10;;;;;;20986347;28;20163;-57
2022/02/18 13:26:36;;;;;;;3.03;1.85;;;20.40;59.90;;;;;;20986121;28;20136;-56
2022/02/18 13:36:38;;;;;;;5.45;2.22;;;20.40;59.80;;;;;;21054088;28;20146;-57
2022/02/18 13:46:42;;;;;;;4.10;2.30;;;20.50;59.70;;;;;;20999817;28;20060;-57
2022/02/18 13:56:47;;;;;;;3.50;2.08;;;20.60;59.50;;;;;;21034481;28;20418;-56
2022/02/18 14:06:57;;;;;;;2.95;1.88;;;20.60;59.40;;;;;;21000911;28;20052;-56
2022/02/18 14:17:03;;;;;;;3.45;2.28;;;20.60;59.30;;;;;;21000390;28;20143;-59
2022/02/18 14:27:12;;;;;;;4.10;2.20;;;20.60;59.20;;;;;;21014134;28;20070;-58
2022/02/18 14:37:14;;;;;;;3.83;2.10;;;20.60;59.10;;;;;;21020629;28;20056;-57
2022/02/18 14:47:19;;;;;;;3.22;2.25;;;20.60;59.00;;;;;;20998139;28;20397;-56
2022/02/18 14:57:26;;;;;;;4.80;2.47;;;20.60;59.00;;;;;;20999916;28;20056;-56
2022/02/18 15:07:27;;;;;;;2.47;1.50;;;20.50;58.60;;;;;;20996183;28;20189;-57
2022/02/18 15:17:31;;;;;;;4.45;2.45;;;20.50;58.70;;;;;;20995963;28;20114;-57
2022/02/18 15:27:33;;;;;;;4.22;1.65;;;20.50;58.70;;;;;;21038144;28;20066;-56
2022/02/18 15:37:35;;;;;;;2.80;1.90;;;20.50;58.80;;;;;;21073307;28;20044;-57
2022/02/18 15:47:37;;;;;;;3.50;1.98;;;20.70;58.50;;;;;;21069480;28;20086;-55
2022/02/18 15:57:38;;;;;;;3.67;1.98;;;21.10;57.60;;;;;;21067339;28;20550;-57
2022/02/18 16:07:40;;;;;;;3.85;2.20;;;21.50;56.70;;;;;;21054920;28;20052;-57
2022/02/18 16:17:46;;;;;;;3.42;1.98;;;21.90;55.90;;;;;;21063426;28;20075;-55
2022/02/18 16:27:47;;;;;;;3.13;1.90;;;22.20;55.30;;;;;;21023330;28;20117;-56
2022/02/18 16:37:49;;;;;;;4.70;3.20;;;22.40;54.90;;;;;;21072037;28;20048;-56
2022/02/18 16:47:51;;;;;;;3.85;2.70;;;22.40;54.30;;;;;;21052251;28;20040;-56
2022/02/18 16:57:53;;;;;;;6.10;2.90;;;22.50;54.00;;;;;;21071146;28;20465;-57
2022/02/18 17:07:54;;;;;;;5.55;3.03;;;22.60;53.90;;;;;;21070916;28;20052;-60
2022/02/18 17:17:57;;;;;;;4.40;2.28;;;22.60;53.80;;;;;;21036949;28;20052;-59
2022/02/18 17:27:58;;;;;;;4.00;2.35;;;22.60;53.80;;;;;;21041952;28;20121;-60
2022/02/18 17:38:00;;;;;;;3.38;2.22;;;22.60;53.90;;;;;;21061089;28;20048;-60
2022/02/18 17:48:04;;;;;;;5.55;2.42;;;22.60;54.00;;;;;;21052891;28;20056;-60
2022/02/18 17:58:06;;;;;;;7.82;2.78;;;22.50;54.00;;;;;;21040352;28;20058;-60
2022/02/18 18:08:08;;;;;;;4.03;1.98;;;22.50;54.10;;;;;;21013064;28;20211;-59
2022/02/18 18:18:10;;;;;;;3.22;2.00;;;22.40;54.10;;;;;;21042271;28;20474;-58
2022/02/18 18:28:12;;;;;;;4.07;2.33;;;22.30;54.30;;;;;;20983429;28;20040;-59
2022/02/18 18:38:18;;;;;;;5.13;2.47;;;22.20;54.70;;;;;;21034703;28;20135;-58
2022/02/18 18:48:25;;;;;;;4.95;2.42;;;21.90;54.90;;;;;;21060172;28;20589;-59
2022/02/18 18:58:26;;;;;;;4.25;2.30;;;21.60;55.40;;;;;;21032893;28;20053;-58
2022/02/18 19:08:28;;;;;;;4.90;2.65;;;21.30;56.00;;;;;;20995828;28;20119;-58
2022/02/18 19:18:30;;;;;;;2.92;2.15;;;21.10;56.60;;;;;;20977728;28;20148;-58
2022/02/18 19:28:31;;;;;;;3.05;1.85;;;20.80;57.20;;;;;;21011291;28;20083;-57
2022/02/18 19:38:33;;;;;;;2.55;1.92;;;20.60;57.60;;;;;;21028120;28;20056;-57
2022/02/18 19:48:36;;;;;;;4.60;2.30;;;20.40;58.10;;;;;;21036806;28;20087;-57
2022/02/18 19:58:37;;;;;;;7.97;2.92;;;20.20;58.10;;;;;;21035361;28;20052;-58
2022/02/18 20:08:39;;;;;;;6.35;3.03;;;20.00;57.50;;;;;;21059291;28;20048;-57
2022/02/18 20:18:40;;;;;;;7.78;3.92;;;19.80;56.60;;;;;;21010724;28;20053;-56
2022/02/18 20:28:42;;;;;;;6.03;3.70;;;19.90;55.80;;;;;;21008320;28;20044;-57
2022/02/18 20:38:44;;;;;;;6.82;4.20;;;21.00;54.70;;;;;;21042333;28;20059;-57
2022/02/18 20:48:46;;;;;;;6.05;3.45;;;21.90;54.00;;;;;;21012044;28;20139;-58
2022/02/18 20:58:47;;;;;;;10.25;3.70;;;22.30;53.50;;;;;;21031624;28;20084;-61
2022/02/18 21:08:50;;;;;;;6.43;4.05;;;22.40;53.30;;;;;;21016143;28;20036;-59
2022/02/18 21:18:52;;;;;;;8.52;4.97;;;22.10;52.70;;;;;;21024476;28;20130;-59
2022/02/18 21:28:54;;;;;;;6.65;4.20;;;21.80;52.20;;;;;;21035398;28;20131;-59
2022/02/18 21:38:57;;;;;;;7.95;4.28;;;21.50;52.10;;;;;;21019056;28;20266;-57
2022/02/18 21:48:58;;;;;;;7.07;4.15;;;21.10;52.70;;;;;;20998297;28;20048;-56
2022/02/18 21:59:00;;;;;;;13.05;3.90;;;20.70;53.40;;;;;;21008455;28;20424;-59
2022/02/18 22:09:03;;;;;;;12.60;4.60;;;20.40;54.40;;;;;;21043576;28;20040;-57
2022/02/18 22:19:05;;;;;;;15.35;5.35;;;20.20;55.00;;;;;;21057913;28;20044;-57
2022/02/18 22:29:07;;;;;;;6.82;4.10;;;20.10;55.50;;;;;;21009121;28;20415;-57
2022/02/18 22:39:09;;;;;;;8.70;3.95;;;20.40;55.70;;;;;;21025329;28;20060;-58
2022/02/18 22:49:10;;;;;;;7.35;4.00;;;21.80;54.50;;;;;;21074178;28;20148;-57
2022/02/18 22:59:12;;;;;;;8.15;3.60;;;23.00;53.50;;;;;;21051382;28;20056;-57
2022/02/18 23:09:13;;;;;;;5.55;3.00;;;23.90;52.50;;;;;;21040547;28;20044;-57
2022/02/18 23:19:15;;;;;;;6.43;3.28;;;24.50;51.50;;;;;;21025953;28;20109;-58
2022/02/18 23:29:17;;;;;;;5.43;3.30;;;25.00;50.70;;;;;;21014304;28;20058;-58
2022/02/18 23:39:19;;;;;;;10.25;3.42;;;25.30;49.90;;;;;;21044368;28;20059;-58
2022/02/18 23:49:20;;;;;;;5.13;2.67;;;25.60;49.20;;;;;;21007442;28;20044;-58
2022/02/18 23:59:22;;;;;;;5.40;3.00;;;25.90;48.70;;;;;;21028313;28;20415;-59
